KBLF/BLF METAR and TAF weather

Enter ICAO airport designator
Station Type Date Time Source
KBLF METAR 2020/07/12 06:52 UTC NOAA

KBLF 120652Z AUTO 00000KT 10SM CLR 17/15 A2997 RMK AO2 SLP115 T01720150


Station Type Date Time Source
KBLF Decoded METAR 2020/07/12 06:52 UTC NOAA

BLUEFIELD MERCER COUNTY AIRPORT , WV, United States (KBLF) 37-18N 081-12W 873M
Jul 12, 2020 - 02:52 AM EDT / 2020.07.12 0652 UTC
Wind: Calm:0
Visibility: 10 mile(s):0
Sky conditions: clear
Temperature: 63.0 F (17.2 C)
Dew Point: 59.0 F (15.0 C)
Relative Humidity: 86%
Pressure (altimeter): 29.97 in. Hg (1014 hPa)
ob: KBLF 120652Z AUTO 00000KT 10SM CLR 17/15 A2997 RMK AO2 SLP115 T01720150
cycle: 7

Station Type Date Time Source
KBLF TAF 2020/07/12 06:24 UTC NOAA

TAF KBLF 120522Z 1206/1306 25004KT P6SM FEW035
FM121500 26007KT P6SM SCT040 BKN120
FM121900 24006KT P6SM VCTS BKN050CB
FM122300 28008KT P6SM -SHRA VCTS BKN030CB
FM130200 21004KT P6SM VCSH BKN040

Example: see airport list